sensor_id;sensor_type;location;lat;lon;timestamp;P1;durP1;ratioP1;P2;durP2;ratioP2
44110;SDS011;29774;52.664;5.074;2023-10-13T00:02:01;7.50;;;2.53;;
44110;SDS011;29774;52.664;5.074;2023-10-13T00:04:28;3.90;;;2.42;;
44110;SDS011;29774;52.664;5.074;2023-10-13T00:06:56;4.95;;;2.30;;
44110;SDS011;29774;52.664;5.074;2023-10-13T00:09:25;6.32;;;3.13;;
44110;SDS011;29774;52.664;5.074;2023-10-13T00:11:57;8.07;;;3.15;;
44110;SDS011;29774;52.664;5.074;2023-10-13T00:14:26;5.90;;;3.47;;
44110;SDS011;29774;52.664;5.074;2023-10-13T00:17:03;6.85;;;3.20;;
44110;SDS011;29774;52.664;5.074;2023-10-13T00:19:31;6.43;;;3.13;;
44110;SDS011;29774;52.664;5.074;2023-10-13T00:22:04;5.10;;;3.30;;
44110;SDS011;29774;52.664;5.074;2023-10-13T00:24:40;6.55;;;3.88;;
44110;SDS011;29774;52.664;5.074;2023-10-13T00:27:16;11.02;;;4.47;;
44110;SDS011;29774;52.664;5.074;2023-10-13T00:30:13;5.97;;;3.60;;
44110;SDS011;29774;52.664;5.074;2023-10-13T00:32:45;8.43;;;4.07;;
44110;SDS011;29774;52.664;5.074;2023-10-13T00:35:20;8.20;;;4.38;;
44110;SDS011;29774;52.664;5.074;2023-10-13T00:37:52;8.57;;;4.55;;
44110;SDS011;29774;52.664;5.074;2023-10-13T00:40:22;6.10;;;4.20;;
44110;SDS011;29774;52.664;5.074;2023-10-13T00:43:00;5.72;;;4.55;;
44110;SDS011;29774;52.664;5.074;2023-10-13T00:45:59;10.75;;;5.70;;
44110;SDS011;29774;52.664;5.074;2023-10-13T00:48:34;5.78;;;4.78;;
44110;SDS011;29774;52.664;5.074;2023-10-13T00:51:08;9.00;;;5.68;;
44110;SDS011;29774;52.664;5.074;2023-10-13T00:53:57;7.75;;;5.43;;
44110;SDS011;29774;52.664;5.074;2023-10-13T00:56:27;7.95;;;5.00;;
44110;SDS011;29774;52.664;5.074;2023-10-13T00:58:55;8.75;;;6.05;;
44110;SDS011;29774;52.664;5.074;2023-10-13T01:01:23;9.13;;;5.47;;
44110;SDS011;29774;52.664;5.074;2023-10-13T01:03:54;8.43;;;5.40;;
44110;SDS011;29774;52.664;5.074;2023-10-13T01:06:24;12.45;;;5.95;;
44110;SDS011;29774;52.664;5.074;2023-10-13T01:08:57;11.15;;;5.70;;
44110;SDS011;29774;52.664;5.074;2023-10-13T01:11:50;10.55;;;5.57;;
44110;SDS011;29774;52.664;5.074;2023-10-13T01:14:20;9.43;;;6.10;;
44110;SDS011;29774;52.664;5.074;2023-10-13T01:16:48;8.68;;;6.13;;
44110;SDS011;29774;52.664;5.074;2023-10-13T01:19:17;11.38;;;5.72;;
44110;SDS011;29774;52.664;5.074;2023-10-13T01:21:44;9.50;;;5.95;;
44110;SDS011;29774;52.664;5.074;2023-10-13T01:24:12;10.43;;;5.97;;
44110;SDS011;29774;52.664;5.074;2023-10-13T01:26:38;6.65;;;5.95;;
44110;SDS011;29774;52.664;5.074;2023-10-13T01:29:05;14.63;;;6.40;;
44110;SDS011;29774;52.664;5.074;2023-10-13T01:31:37;7.22;;;6.03;;
44110;SDS011;29774;52.664;5.074;2023-10-13T01:34:11;11.23;;;7.03;;
44110;SDS011;29774;52.664;5.074;2023-10-13T01:36:37;6.80;;;5.43;;
44110;SDS011;29774;52.664;5.074;2023-10-13T01:39:05;10.32;;;6.88;;
44110;SDS011;29774;52.664;5.074;2023-10-13T01:41:32;9.75;;;6.53;;
44110;SDS011;29774;52.664;5.074;2023-10-13T01:43:57;8.25;;;6.53;;
44110;SDS011;29774;52.664;5.074;2023-10-13T01:46:23;7.18;;;6.20;;
44110;SDS011;29774;52.664;5.074;2023-10-13T01:48:49;9.40;;;5.57;;
44110;SDS011;29774;52.664;5.074;2023-10-13T01:51:14;10.13;;;6.20;;
44110;SDS011;29774;52.664;5.074;2023-10-13T01:53:40;10.73;;;6.00;;
44110;SDS011;29774;52.664;5.074;2023-10-13T01:56:07;6.45;;;5.03;;
44110;SDS011;29774;52.664;5.074;2023-10-13T01:58:38;6.90;;;5.30;;
44110;SDS011;29774;52.664;5.074;2023-10-13T02:01:10;5.97;;;4.78;;
44110;SDS011;29774;52.664;5.074;2023-10-13T02:03:36;6.40;;;5.10;;
44110;SDS011;29774;52.664;5.074;2023-10-13T02:06:12;8.65;;;4.88;;
44110;SDS011;29774;52.664;5.074;2023-10-13T02:08:42;5.85;;;4.85;;
44110;SDS011;29774;52.664;5.074;2023-10-13T02:11:09;10.07;;;4.65;;
44110;SDS011;29774;52.664;5.074;2023-10-13T02:13:35;9.68;;;5.30;;
44110;SDS011;29774;52.664;5.074;2023-10-13T02:16:06;6.20;;;4.80;;
44110;SDS011;29774;52.664;5.074;2023-10-13T02:18:32;6.95;;;4.90;;
44110;SDS011;29774;52.664;5.074;2023-10-13T02:21:08;7.45;;;4.93;;
44110;SDS011;29774;52.664;5.074;2023-10-13T02:23:40;7.88;;;4.88;;
44110;SDS011;29774;52.664;5.074;2023-10-13T02:26:24;7.28;;;4.85;;
44110;SDS011;29774;52.664;5.074;2023-10-13T02:29:03;8.35;;;5.80;;
44110;SDS011;29774;52.664;5.074;2023-10-13T02:31:36;8.30;;;5.10;;
44110;SDS011;29774;52.664;5.074;2023-10-13T02:34:02;6.53;;;4.32;;
44110;SDS011;29774;52.664;5.074;2023-10-13T02:36:37;8.85;;;4.55;;
44110;SDS011;29774;52.664;5.074;2023-10-13T02:39:18;8.65;;;4.35;;
44110;SDS011;29774;52.664;5.074;2023-10-13T02:41:52;7.32;;;4.07;;
44110;SDS011;29774;52.664;5.074;2023-10-13T02:44:20;7.28;;;3.63;;
44110;SDS011;29774;52.664;5.074;2023-10-13T02:46:54;4.38;;;3.30;;
44110;SDS011;29774;52.664;5.074;2023-10-13T02:49:23;4.45;;;2.42;;
44110;SDS011;29774;52.664;5.074;2023-10-13T02:51:51;7.38;;;2.85;;
44110;SDS011;29774;52.664;5.074;2023-10-13T02:54:18;5.60;;;2.60;;
44110;SDS011;29774;52.664;5.074;2023-10-13T02:56:44;4.28;;;2.80;;
44110;SDS011;29774;52.664;5.074;2023-10-13T02:59:24;5.68;;;2.10;;
44110;SDS011;29774;52.664;5.074;2023-10-13T03:02:10;3.63;;;1.90;;
44110;SDS011;29774;52.664;5.074;2023-10-13T03:04:53;3.45;;;2.17;;
44110;SDS011;29774;52.664;5.074;2023-10-13T03:07:24;6.45;;;2.40;;
44110;SDS011;29774;52.664;5.074;2023-10-13T03:09:54;4.97;;;2.35;;
44110;SDS011;29774;52.664;5.074;2023-10-13T03:12:24;6.57;;;2.20;;
44110;SDS011;29774;52.664;5.074;2023-10-13T03:14:51;3.05;;;1.98;;
44110;SDS011;29774;52.664;5.074;2023-10-13T03:17:20;5.88;;;2.60;;
44110;SDS011;29774;52.664;5.074;2023-10-13T03:19:58;4.78;;;2.85;;
44110;SDS011;29774;52.664;5.074;2023-10-13T03:22:24;6.97;;;3.85;;
44110;SDS011;29774;52.664;5.074;2023-10-13T03:24:58;5.70;;;3.00;;
44110;SDS011;29774;52.664;5.074;2023-10-13T03:27:38;5.45;;;3.67;;
44110;SDS011;29774;52.664;5.074;2023-10-13T03:30:29;9.23;;;4.47;;
44110;SDS011;29774;52.664;5.074;2023-10-13T03:33:01;8.52;;;5.25;;
44110;SDS011;29774;52.664;5.074;2023-10-13T03:35:32;7.53;;;6.05;;
44110;SDS011;29774;52.664;5.074;2023-10-13T03:38:08;10.48;;;6.82;;
44110;SDS011;29774;52.664;5.074;2023-10-13T03:40:44;9.88;;;7.75;;
44110;SDS011;29774;52.664;5.074;2023-10-13T03:43:13;8.20;;;6.30;;
44110;SDS011;29774;52.664;5.074;2023-10-13T03:45:46;8.55;;;5.80;;
44110;SDS011;29774;52.664;5.074;2023-10-13T03:48:17;9.68;;;7.30;;
44110;SDS011;29774;52.664;5.074;2023-10-13T03:50:50;9.90;;;7.68;;
44110;SDS011;29774;52.664;5.074;2023-10-13T03:53:35;11.00;;;8.00;;
44110;SDS011;29774;52.664;5.074;2023-10-13T03:56:15;7.65;;;6.45;;
44110;SDS011;29774;52.664;5.074;2023-10-13T03:58:41;7.38;;;6.53;;
44110;SDS011;29774;52.664;5.074;2023-10-13T04:01:13;8.88;;;7.82;;
44110;SDS011;29774;52.664;5.074;2023-10-13T04:03:42;11.73;;;8.15;;
44110;SDS011;29774;52.664;5.074;2023-10-13T04:06:27;13.48;;;9.65;;
44110;SDS011;29774;52.664;5.074;2023-10-13T04:11:55;10.90;;;8.93;;
44110;SDS011;29774;52.664;5.074;2023-10-13T04:14:30;12.35;;;8.77;;
44110;SDS011;29774;52.664;5.074;2023-10-13T04:17:09;8.30;;;7.38;;
44110;SDS011;29774;52.664;5.074;2023-10-13T04:19:47;7.60;;;6.88;;
44110;SDS011;29774;52.664;5.074;2023-10-13T04:25:14;8.88;;;7.22;;
44110;SDS011;29774;52.664;5.074;2023-10-13T04:28:02;9.40;;;7.57;;
44110;SDS011;29774;52.664;5.074;2023-10-13T04:30:58;7.07;;;5.90;;
44110;SDS011;29774;52.664;5.074;2023-10-13T04:33:30;6.65;;;5.78;;
44110;SDS011;29774;52.664;5.074;2023-10-13T04:38:51;7.22;;;5.68;;
44110;SDS011;29774;52.664;5.074;2023-10-13T04:41:26;6.60;;;6.00;;
44110;SDS011;29774;52.664;5.074;2023-10-13T04:44:04;5.25;;;3.88;;
44110;SDS011;29774;52.664;5.074;2023-10-13T04:46:51;6.43;;;5.10;;
44110;SDS011;29774;52.664;5.074;2023-10-13T04:49:20;4.95;;;4.45;;
44110;SDS011;29774;52.664;5.074;2023-10-13T04:52:15;4.72;;;4.30;;
44110;SDS011;29774;52.664;5.074;2023-10-13T04:55:00;3.45;;;3.15;;
44110;SDS011;29774;52.664;5.074;2023-10-13T04:57:42;3.60;;;3.30;;
44110;SDS011;29774;52.664;5.074;2023-10-13T05:00:10;3.60;;;3.00;;
44110;SDS011;29774;52.664;5.074;2023-10-13T05:05:13;5.13;;;2.47;;
44110;SDS011;29774;52.664;5.074;2023-10-13T05:07:42;2.92;;;2.00;;
44110;SDS011;29774;52.664;5.074;2023-10-13T05:10:27;1.50;;;1.33;;
44110;SDS011;29774;52.664;5.074;2023-10-13T05:13:11;3.40;;;2.05;;
44110;SDS011;29774;52.664;5.074;2023-10-13T05:15:55;2.55;;;1.55;;
44110;SDS011;29774;52.664;5.074;2023-10-13T05:18:39;2.95;;;2.15;;
44110;SDS011;29774;52.664;5.074;2023-10-13T05:21:23;1.88;;;1.60;;
44110;SDS011;29774;52.664;5.074;2023-10-13T05:24:07;1.38;;;1.27;;
44110;SDS011;29774;52.664;5.074;2023-10-13T05:26:52;1.35;;;1.10;;
44110;SDS011;29774;52.664;5.074;2023-10-13T05:29:40;1.77;;;1.52;;
44110;SDS011;29774;52.664;5.074;2023-10-13T05:32:25;1.83;;;1.42;;
44110;SDS011;29774;52.664;5.074;2023-10-13T05:35:10;2.95;;;1.67;;
44110;SDS011;29774;52.664;5.074;2023-10-13T05:37:55;2.92;;;1.48;;
44110;SDS011;29774;52.664;5.074;2023-10-13T05:40:39;2.13;;;1.40;;
44110;SDS011;29774;52.664;5.074;2023-10-13T05:43:23;1.63;;;1.30;;
44110;SDS011;29774;52.664;5.074;2023-10-13T05:46:08;2.47;;;1.17;;
44110;SDS011;29774;52.664;5.074;2023-10-13T05:49:06;1.42;;;1.20;;
44110;SDS011;29774;52.664;5.074;2023-10-13T05:51:42;5.03;;;1.58;;
44110;SDS011;29774;52.664;5.074;2023-10-13T05:54:12;2.00;;;1.33;;
44110;SDS011;29774;52.664;5.074;2023-10-13T05:56:46;1.67;;;1.10;;
44110;SDS011;29774;52.664;5.074;2023-10-13T05:59:34;6.43;;;1.67;;
44110;SDS011;29774;52.664;5.074;2023-10-13T06:02:22;8.30;;;1.88;;
44110;SDS011;29774;52.664;5.074;2023-10-13T06:05:08;6.55;;;2.50;;
44110;SDS011;29774;52.664;5.074;2023-10-13T06:07:54;9.10;;;2.08;;
44110;SDS011;29774;52.664;5.074;2023-10-13T06:10:39;8.68;;;3.20;;
44110;SDS011;29774;52.664;5.074;2023-10-13T06:13:24;16.45;;;3.35;;
44110;SDS011;29774;52.664;5.074;2023-10-13T06:16:11;14.30;;;4.03;;
44110;SDS011;29774;52.664;5.074;2023-10-13T06:18:57;12.10;;;2.80;;
44110;SDS011;29774;52.664;5.074;2023-10-13T06:21:41;13.80;;;3.70;;
44110;SDS011;29774;52.664;5.074;2023-10-13T06:24:26;12.98;;;4.10;;
44110;SDS011;29774;52.664;5.074;2023-10-13T06:27:11;16.02;;;3.38;;
44110;SDS011;29774;52.664;5.074;2023-10-13T06:29:55;13.48;;;3.42;;
44110;SDS011;29774;52.664;5.074;2023-10-13T06:32:21;15.75;;;3.83;;
44110;SDS011;29774;52.664;5.074;2023-10-13T06:34:53;15.50;;;4.05;;
44110;SDS011;29774;52.664;5.074;2023-10-13T06:37:25;9.85;;;3.38;;
44110;SDS011;29774;52.664;5.074;2023-10-13T06:39:55;10.93;;;2.88;;
44110;SDS011;29774;52.664;5.074;2023-10-13T06:42:25;11.95;;;3.05;;
44110;SDS011;29774;52.664;5.074;2023-10-13T06:44:54;19.60;;;3.85;;
44110;SDS011;29774;52.664;5.074;2023-10-13T06:47:21;13.38;;;3.22;;
44110;SDS011;29774;52.664;5.074;2023-10-13T06:49:50;10.30;;;3.00;;
44110;SDS011;29774;52.664;5.074;2023-10-13T06:52:22;11.10;;;3.22;;
44110;SDS011;29774;52.664;5.074;2023-10-13T06:54:51;10.18;;;2.95;;
44110;SDS011;29774;52.664;5.074;2023-10-13T06:57:18;9.77;;;3.85;;
44110;SDS011;29774;52.664;5.074;2023-10-13T06:59:47;13.90;;;3.63;;
44110;SDS011;29774;52.664;5.074;2023-10-13T07:02:13;9.43;;;2.78;;
44110;SDS011;29774;52.664;5.074;2023-10-13T07:04:48;7.68;;;2.30;;
44110;SDS011;29774;52.664;5.074;2023-10-13T07:07:22;8.38;;;3.22;;
44110;SDS011;29774;52.664;5.074;2023-10-13T07:09:48;11.25;;;3.10;;
44110;SDS011;29774;52.664;5.074;2023-10-13T07:12:20;8.70;;;2.60;;
44110;SDS011;29774;52.664;5.074;2023-10-13T07:14:51;5.93;;;3.45;;
44110;SDS011;29774;52.664;5.074;2023-10-13T07:17:17;10.57;;;3.55;;
44110;SDS011;29774;52.664;5.074;2023-10-13T07:19:50;9.73;;;3.33;;
44110;SDS011;29774;52.664;5.074;2023-10-13T07:22:18;10.60;;;3.33;;
44110;SDS011;29774;52.664;5.074;2023-10-13T07:24:45;6.10;;;2.85;;
44110;SDS011;29774;52.664;5.074;2023-10-13T07:27:23;12.90;;;3.65;;
44110;SDS011;29774;52.664;5.074;2023-10-13T07:29:52;9.70;;;3.17;;
44110;SDS011;29774;52.664;5.074;2023-10-13T07:32:39;7.47;;;3.03;;
44110;SDS011;29774;52.664;5.074;2023-10-13T07:35:10;8.38;;;2.70;;
44110;SDS011;29774;52.664;5.074;2023-10-13T07:37:41;4.63;;;1.90;;
44110;SDS011;29774;52.664;5.074;2023-10-13T07:40:08;5.85;;;3.17;;
44110;SDS011;29774;52.664;5.074;2023-10-13T07:42:53;4.55;;;2.15;;
44110;SDS011;29774;52.664;5.074;2023-10-13T07:45:26;5.00;;;2.58;;
44110;SDS011;29774;52.664;5.074;2023-10-13T07:48:01;6.43;;;2.78;;
44110;SDS011;29774;52.664;5.074;2023-10-13T07:50:32;5.28;;;2.47;;
44110;SDS011;29774;52.664;5.074;2023-10-13T07:52:59;4.85;;;2.85;;
44110;SDS011;29774;52.664;5.074;2023-10-13T07:55:30;6.03;;;2.88;;
44110;SDS011;29774;52.664;5.074;2023-10-13T07:57:59;5.47;;;1.92;;
44110;SDS011;29774;52.664;5.074;2023-10-13T08:00:32;7.10;;;3.33;;
44110;SDS011;29774;52.664;5.074;2023-10-13T08:03:14;6.90;;;2.90;;
44110;SDS011;29774;52.664;5.074;2023-10-13T08:05:43;4.85;;;2.85;;
44110;SDS011;29774;52.664;5.074;2023-10-13T08:08:31;6.15;;;2.28;;
44110;SDS011;29774;52.664;5.074;2023-10-13T08:11:10;6.72;;;2.58;;
44110;SDS011;29774;52.664;5.074;2023-10-13T08:13:51;4.35;;;2.35;;
44110;SDS011;29774;52.664;5.074;2023-10-13T08:16:24;7.18;;;3.38;;
44110;SDS011;29774;52.664;5.074;2023-10-13T08:18:55;7.10;;;4.10;;
44110;SDS011;29774;52.664;5.074;2023-10-13T08:21:21;7.13;;;2.78;;
44110;SDS011;29774;52.664;5.074;2023-10-13T08:23:50;7.80;;;3.17;;
44110;SDS011;29774;52.664;5.074;2023-10-13T08:26:19;6.20;;;3.15;;
44110;SDS011;29774;52.664;5.074;2023-10-13T08:28:55;3.60;;;2.58;;
44110;SDS011;29774;52.664;5.074;2023-10-13T08:31:21;7.00;;;2.97;;
44110;SDS011;29774;52.664;5.074;2023-10-13T08:33:50;7.28;;;3.17;;
44110;SDS011;29774;52.664;5.074;2023-10-13T08:36:23;3.95;;;2.20;;
44110;SDS011;29774;52.664;5.074;2023-10-13T08:38:55;3.55;;;2.65;;
44110;SDS011;29774;52.664;5.074;2023-10-13T08:41:22;3.15;;;1.92;;
44110;SDS011;29774;52.664;5.074;2023-10-13T08:43:48;5.20;;;3.15;;
44110;SDS011;29774;52.664;5.074;2023-10-13T08:46:19;3.83;;;2.10;;
44110;SDS011;29774;52.664;5.074;2023-10-13T08:48:58;5.18;;;2.50;;
44110;SDS011;29774;52.664;5.074;2023-10-13T08:51:43;7.05;;;2.03;;
44110;SDS011;29774;52.664;5.074;2023-10-13T08:54:11;4.00;;;2.00;;
44110;SDS011;29774;52.664;5.074;2023-10-13T08:57:00;6.75;;;2.10;;
44110;SDS011;29774;52.664;5.074;2023-10-13T08:59:45;8.52;;;2.70;;
44110;SDS011;29774;52.664;5.074;2023-10-13T09:02:18;7.28;;;3.45;;
44110;SDS011;29774;52.664;5.074;2023-10-13T09:05:08;7.97;;;2.67;;
44110;SDS011;29774;52.664;5.074;2023-10-13T09:07:54;5.38;;;2.10;;
44110;SDS011;29774;52.664;5.074;2023-10-13T09:10:22;5.65;;;2.58;;
44110;SDS011;29774;52.664;5.074;2023-10-13T09:13:09;6.78;;;3.30;;
44110;SDS011;29774;52.664;5.074;2023-10-13T09:15:45;7.32;;;2.50;;
44110;SDS011;29774;52.664;5.074;2023-10-13T09:18:26;6.15;;;2.55;;
44110;SDS011;29774;52.664;5.074;2023-10-13T09:21:11;8.60;;;2.67;;
44110;SDS011;29774;52.664;5.074;2023-10-13T09:23:58;8.63;;;2.88;;
44110;SDS011;29774;52.664;5.074;2023-10-13T09:26:47;6.38;;;2.50;;
44110;SDS011;29774;52.664;5.074;2023-10-13T09:29:18;7.45;;;2.42;;
44110;SDS011;29774;52.664;5.074;2023-10-13T09:31:47;5.45;;;2.50;;
44110;SDS011;29774;52.664;5.074;2023-10-13T09:34:25;9.55;;;3.03;;
44110;SDS011;29774;52.664;5.074;2023-10-13T09:36:56;4.55;;;2.22;;
44110;SDS011;29774;52.664;5.074;2023-10-13T09:39:28;7.00;;;1.90;;
44110;SDS011;29774;52.664;5.074;2023-10-13T09:42:26;7.88;;;2.70;;
44110;SDS011;29774;52.664;5.074;2023-10-13T09:44:51;7.80;;;2.88;;
44110;SDS011;29774;52.664;5.074;2023-10-13T09:47:23;3.88;;;2.03;;
44110;SDS011;29774;52.664;5.074;2023-10-13T09:49:57;7.82;;;2.83;;
44110;SDS011;29774;52.664;5.074;2023-10-13T09:52:29;7.07;;;2.70;;
44110;SDS011;29774;52.664;5.074;2023-10-13T09:57:37;5.78;;;2.13;;
44110;SDS011;29774;52.664;5.074;2023-10-13T10:00:11;5.57;;;2.47;;
44110;SDS011;29774;52.664;5.074;2023-10-13T10:02:54;5.75;;;2.63;;
44110;SDS011;29774;52.664;5.074;2023-10-13T10:05:27;5.90;;;2.00;;
44110;SDS011;29774;52.664;5.074;2023-10-13T10:07:59;5.10;;;2.10;;
44110;SDS011;29774;52.664;5.074;2023-10-13T10:16:10;5.18;;;2.42;;
44110;SDS011;29774;52.664;5.074;2023-10-13T10:18:41;11.43;;;3.58;;
44110;SDS011;29774;52.664;5.074;2023-10-13T10:21:06;8.07;;;3.05;;
44110;SDS011;29774;52.664;5.074;2023-10-13T10:23:32;5.00;;;2.45;;
44110;SDS011;29774;52.664;5.074;2023-10-13T10:26:10;9.05;;;2.80;;
44110;SDS011;29774;52.664;5.074;2023-10-13T10:28:41;5.25;;;1.83;;
44110;SDS011;29774;52.664;5.074;2023-10-13T10:31:08;6.22;;;2.10;;
44110;SDS011;29774;52.664;5.074;2023-10-13T10:33:37;8.00;;;2.88;;
44110;SDS011;29774;52.664;5.074;2023-10-13T10:36:04;6.32;;;2.58;;
44110;SDS011;29774;52.664;5.074;2023-10-13T10:38:30;7.97;;;2.33;;
44110;SDS011;29774;52.664;5.074;2023-10-13T10:41:06;4.22;;;2.03;;
44110;SDS011;29774;52.664;5.074;2023-10-13T10:46:46;4.05;;;2.45;;
44110;SDS011;29774;52.664;5.074;2023-10-13T10:49:07;10.60;;;3.30;;
44110;SDS011;29774;52.664;5.074;2023-10-13T10:51:33;3.95;;;1.90;;
44110;SDS011;29774;52.664;5.074;2023-10-13T10:54:17;6.30;;;2.83;;
44110;SDS011;29774;52.664;5.074;2023-10-13T10:56:43;7.43;;;3.08;;
44110;SDS011;29774;52.664;5.074;2023-10-13T10:59:09;11.65;;;3.63;;
44110;SDS011;29774;52.664;5.074;2023-10-13T11:01:44;9.18;;;3.05;;
44110;SDS011;29774;52.664;5.074;2023-10-13T11:04:16;4.32;;;2.30;;
44110;SDS011;29774;52.664;5.074;2023-10-13T11:06:49;5.50;;;2.78;;
44110;SDS011;29774;52.664;5.074;2023-10-13T11:09:29;6.13;;;2.60;;
44110;SDS011;29774;52.664;5.074;2023-10-13T11:11:56;7.45;;;2.95;;
44110;SDS011;29774;52.664;5.074;2023-10-13T11:14:31;10.23;;;3.08;;
44110;SDS011;29774;52.664;5.074;2023-10-13T11:16:57;9.90;;;3.97;;
44110;SDS011;29774;52.664;5.074;2023-10-13T11:19:39;7.93;;;2.85;;
44110;SDS011;29774;52.664;5.074;2023-10-13T11:22:09;7.53;;;2.53;;
44110;SDS011;29774;52.664;5.074;2023-10-13T11:24:43;4.80;;;2.40;;
44110;SDS011;29774;52.664;5.074;2023-10-13T11:27:15;7.50;;;2.53;;
44110;SDS011;29774;52.664;5.074;2023-10-13T11:29:46;6.15;;;2.53;;
44110;SDS011;29774;52.664;5.074;2023-10-13T11:32:17;5.20;;;2.83;;
44110;SDS011;29774;52.664;5.074;2023-10-13T11:34:46;5.18;;;2.45;;
44110;SDS011;29774;52.664;5.074;2023-10-13T11:37:19;6.47;;;2.83;;
44110;SDS011;29774;52.664;5.074;2023-10-13T11:40:02;7.90;;;3.10;;
44110;SDS011;29774;52.664;5.074;2023-10-13T11:42:34;9.48;;;3.88;;
44110;SDS011;29774;52.664;5.074;2023-10-13T11:45:01;4.75;;;3.20;;
44110;SDS011;29774;52.664;5.074;2023-10-13T11:47:59;12.75;;;3.42;;
44110;SDS011;29774;52.664;5.074;2023-10-13T11:50:25;7.85;;;3.15;;
44110;SDS011;29774;52.664;5.074;2023-10-13T11:53:00;8.30;;;3.40;;
44110;SDS011;29774;52.664;5.074;2023-10-13T11:55:26;6.82;;;3.38;;
44110;SDS011;29774;52.664;5.074;2023-10-13T11:57:52;6.70;;;2.85;;
44110;SDS011;29774;52.664;5.074;2023-10-13T12:00:18;9.80;;;3.15;;
44110;SDS011;29774;52.664;5.074;2023-10-13T12:03:09;10.30;;;3.30;;
44110;SDS011;29774;52.664;5.074;2023-10-13T12:05:53;8.13;;;2.80;;
44110;SDS011;29774;52.664;5.074;2023-10-13T12:08:43;9.43;;;3.72;;
44110;SDS011;29774;52.664;5.074;2023-10-13T12:11:15;7.38;;;3.03;;
44110;SDS011;29774;52.664;5.074;2023-10-13T12:13:56;11.10;;;3.33;;
44110;SDS011;29774;52.664;5.074;2023-10-13T12:16:22;6.45;;;3.15;;
44110;SDS011;29774;52.664;5.074;2023-10-13T12:18:54;10.65;;;3.20;;
44110;SDS011;29774;52.664;5.074;2023-10-13T12:21:20;5.97;;;4.03;;
44110;SDS011;29774;52.664;5.074;2023-10-13T12:23:46;7.85;;;4.60;;
44110;SDS011;29774;52.664;5.074;2023-10-13T12:26:12;9.75;;;3.35;;
44110;SDS011;29774;52.664;5.074;2023-10-13T12:28:44;9.80;;;4.28;;
44110;SDS011;29774;52.664;5.074;2023-10-13T12:31:16;11.05;;;3.83;;
44110;SDS011;29774;52.664;5.074;2023-10-13T12:33:51;7.60;;;3.13;;
44110;SDS011;29774;52.664;5.074;2023-10-13T12:36:17;8.38;;;3.25;;
44110;SDS011;29774;52.664;5.074;2023-10-13T12:38:45;12.02;;;3.72;;
44110;SDS011;29774;52.664;5.074;2023-10-13T12:41:10;11.15;;;3.92;;
44110;SDS011;29774;52.664;5.074;2023-10-13T12:43:55;7.78;;;3.80;;
44110;SDS011;29774;52.664;5.074;2023-10-13T12:46:39;14.30;;;3.53;;
44110;SDS011;29774;52.664;5.074;2023-10-13T12:49:23;10.27;;;3.63;;
44110;SDS011;29774;52.664;5.074;2023-10-13T12:52:12;8.02;;;3.72;;
44110;SDS011;29774;52.664;5.074;2023-10-13T12:54:44;7.30;;;3.20;;
44110;SDS011;29774;52.664;5.074;2023-10-13T12:57:15;7.43;;;3.70;;
44110;SDS011;29774;52.664;5.074;2023-10-13T12:59:41;10.23;;;3.83;;
44110;SDS011;29774;52.664;5.074;2023-10-13T13:02:07;11.55;;;3.60;;
44110;SDS011;29774;52.664;5.074;2023-10-13T13:04:39;11.07;;;3.75;;
44110;SDS011;29774;52.664;5.074;2023-10-13T13:07:09;9.57;;;2.92;;
44110;SDS011;29774;52.664;5.074;2023-10-13T13:09:41;15.80;;;5.00;;
44110;SDS011;29774;52.664;5.074;2023-10-13T13:12:07;8.10;;;3.25;;
44110;SDS011;29774;52.664;5.074;2023-10-13T13:14:33;9.10;;;3.50;;
44110;SDS011;29774;52.664;5.074;2023-10-13T13:17:05;12.55;;;3.67;;
44110;SDS011;29774;52.664;5.074;2023-10-13T13:19:34;5.78;;;2.88;;
44110;SDS011;29774;52.664;5.074;2023-10-13T13:22:07;8.35;;;3.03;;
44110;SDS011;29774;52.664;5.074;2023-10-13T13:24:41;17.27;;;4.25;;
44110;SDS011;29774;52.664;5.074;2023-10-13T13:27:10;7.57;;;3.45;;
44110;SDS011;29774;52.664;5.074;2023-10-13T13:29:39;5.13;;;2.83;;
44110;SDS011;29774;52.664;5.074;2023-10-13T13:32:11;9.50;;;3.33;;
44110;SDS011;29774;52.664;5.074;2023-10-13T13:34:49;9.23;;;3.80;;
44110;SDS011;29774;52.664;5.074;2023-10-13T13:37:38;9.82;;;4.00;;
44110;SDS011;29774;52.664;5.074;2023-10-13T13:40:04;9.77;;;3.20;;
44110;SDS011;29774;52.664;5.074;2023-10-13T13:42:43;7.07;;;3.42;;
44110;SDS011;29774;52.664;5.074;2023-10-13T13:45:13;7.03;;;3.60;;
44110;SDS011;29774;52.664;5.074;2023-10-13T13:47:56;7.78;;;3.42;;
44110;SDS011;29774;52.664;5.074;2023-10-13T13:50:23;9.73;;;3.65;;
44110;SDS011;29774;52.664;5.074;2023-10-13T13:52:51;12.40;;;3.97;;
44110;SDS011;29774;52.664;5.074;2023-10-13T13:55:20;6.40;;;3.83;;
44110;SDS011;29774;52.664;5.074;2023-10-13T13:57:47;9.13;;;4.10;;
44110;SDS011;29774;52.664;5.074;2023-10-13T14:00:15;8.70;;;3.10;;
44110;SDS011;29774;52.664;5.074;2023-10-13T14:03:02;9.48;;;4.05;;
44110;SDS011;29774;52.664;5.074;2023-10-13T14:05:28;8.73;;;4.15;;
44110;SDS011;29774;52.664;5.074;2023-10-13T14:07:54;9.10;;;3.10;;
44110;SDS011;29774;52.664;5.074;2023-10-13T14:10:20;11.25;;;4.07;;
44110;SDS011;29774;52.664;5.074;2023-10-13T14:13:01;10.82;;;4.00;;
44110;SDS011;29774;52.664;5.074;2023-10-13T14:15:38;13.18;;;3.53;;
44110;SDS011;29774;52.664;5.074;2023-10-13T14:18:11;8.30;;;3.45;;
44110;SDS011;29774;52.664;5.074;2023-10-13T14:20:40;9.93;;;3.88;;
44110;SDS011;29774;52.664;5.074;2023-10-13T14:23:07;13.93;;;4.13;;
44110;SDS011;29774;52.664;5.074;2023-10-13T14:25:36;13.18;;;4.32;;
44110;SDS011;29774;52.664;5.074;2023-10-13T14:28:04;7.13;;;3.35;;
44110;SDS011;29774;52.664;5.074;2023-10-13T14:30:30;11.50;;;3.70;;
44110;SDS011;29774;52.664;5.074;2023-10-13T14:32:57;7.63;;;3.80;;
44110;SDS011;29774;52.664;5.074;2023-10-13T14:35:26;12.68;;;3.78;;
44110;SDS011;29774;52.664;5.074;2023-10-13T14:37:52;11.52;;;3.55;;
44110;SDS011;29774;52.664;5.074;2023-10-13T14:40:18;7.75;;;2.50;;
44110;SDS011;29774;52.664;5.074;2023-10-13T14:42:47;11.02;;;3.38;;
44110;SDS011;29774;52.664;5.074;2023-10-13T14:45:13;11.90;;;4.30;;
44110;SDS011;29774;52.664;5.074;2023-10-13T14:47:41;10.75;;;2.75;;
44110;SDS011;29774;52.664;5.074;2023-10-13T14:50:07;8.10;;;3.10;;
44110;SDS011;29774;52.664;5.074;2023-10-13T14:52:42;17.15;;;4.45;;
44110;SDS011;29774;52.664;5.074;2023-10-13T14:55:08;10.20;;;3.58;;
44110;SDS011;29774;52.664;5.074;2023-10-13T14:57:43;16.45;;;4.13;;
44110;SDS011;29774;52.664;5.074;2023-10-13T15:00:10;7.05;;;3.10;;
44110;SDS011;29774;52.664;5.074;2023-10-13T15:02:38;9.68;;;4.07;;
44110;SDS011;29774;52.664;5.074;2023-10-13T15:05:04;10.10;;;3.38;;
44110;SDS011;29774;52.664;5.074;2023-10-13T15:07:29;8.38;;;3.08;;
44110;SDS011;29774;52.664;5.074;2023-10-13T15:09:55;12.25;;;3.42;;
44110;SDS011;29774;52.664;5.074;2023-10-13T15:12:23;9.93;;;3.72;;
44110;SDS011;29774;52.664;5.074;2023-10-13T15:14:50;12.43;;;3.53;;
44110;SDS011;29774;52.664;5.074;2023-10-13T15:17:18;10.20;;;3.63;;
44110;SDS011;29774;52.664;5.074;2023-10-13T15:19:43;8.73;;;3.35;;
44110;SDS011;29774;52.664;5.074;2023-10-13T15:22:09;10.93;;;3.28;;
44110;SDS011;29774;52.664;5.074;2023-10-13T15:24:50;11.43;;;3.20;;
44110;SDS011;29774;52.664;5.074;2023-10-13T15:27:36;11.35;;;2.75;;
44110;SDS011;29774;52.664;5.074;2023-10-13T15:30:06;12.57;;;3.28;;
44110;SDS011;29774;52.664;5.074;2023-10-13T15:32:45;7.53;;;3.15;;
44110;SDS011;29774;52.664;5.074;2023-10-13T15:35:11;8.55;;;2.90;;
44110;SDS011;29774;52.664;5.074;2023-10-13T15:37:37;11.32;;;3.08;;
44110;SDS011;29774;52.664;5.074;2023-10-13T15:40:03;9.00;;;2.58;;
44110;SDS011;29774;52.664;5.074;2023-10-13T15:42:29;8.20;;;3.28;;
44110;SDS011;29774;52.664;5.074;2023-10-13T15:44:55;12.10;;;3.78;;
44110;SDS011;29774;52.664;5.074;2023-10-13T15:47:21;14.55;;;3.80;;